createdAt,value
2022-08-25T00:00:00.300Z,23.70
2022-08-25T00:00:10.175Z,24.10
2022-08-25T00:00:20.176Z,22.40
2022-08-25T00:00:30.183Z,22.70
2022-08-25T00:00:40.174Z,22.30
2022-08-25T00:00:50.181Z,22.00
2022-08-25T00:01:00.182Z,21.30
2022-08-25T00:01:10.171Z,21.40
2022-08-25T00:01:20.211Z,22.80
2022-08-25T00:01:30.181Z,22.70
2022-08-25T00:01:40.164Z,21.90
2022-08-25T00:01:50.191Z,20.90
2022-08-25T00:02:00.433Z,20.20
2022-08-25T00:02:10.362Z,20.70
2022-08-25T00:02:20.272Z,21.60
2022-08-25T00:02:30.269Z,22.20
2022-08-25T00:02:40.278Z,22.10
2022-08-25T00:02:54.952Z,21.10
2022-08-25T00:03:00.229Z,20.90
2022-08-25T00:03:10.188Z,20.90
2022-08-25T00:03:20.169Z,21.60
2022-08-25T00:03:30.169Z,21.90
2022-08-25T00:03:40.308Z,21.80
2022-08-25T00:03:50.168Z,21.60
2022-08-25T00:04:00.159Z,21.20
2022-08-25T00:04:11.030Z,21.40
2022-08-25T00:04:20.172Z,21.50
2022-08-25T00:04:30.205Z,22.00
2022-08-25T00:04:40.170Z,21.00
2022-08-25T00:04:53.857Z,21.40
2022-08-25T00:05:00.199Z,21.10
2022-08-25T00:05:10.209Z,22.80
2022-08-25T00:05:20.245Z,22.30
2022-08-25T00:05:32.508Z,22.50
2022-08-25T00:05:40.240Z,21.90
2022-08-25T00:05:50.228Z,21.60
2022-08-25T00:06:00.151Z,21.70
2022-08-25T00:06:11.019Z,21.60
2022-08-25T00:06:20.939Z,22.30
2022-08-25T00:06:30.939Z,23.10
2022-08-25T00:06:40.926Z,23.10
2022-08-25T00:06:50.955Z,22.60
2022-08-25T00:07:03.396Z,21.50
2022-08-25T00:07:10.930Z,21.20
2022-08-25T00:07:20.966Z,20.90
2022-08-25T00:07:30.951Z,21.00
2022-08-25T00:07:41.020Z,21.80
2022-08-25T00:07:50.925Z,22.40
2022-08-25T00:08:01.014Z,21.90
2022-08-25T00:08:10.951Z,20.80
2022-08-25T00:08:20.941Z,21.30
2022-08-25T00:08:30.161Z,21.90
2022-08-25T00:08:40.139Z,22.40
2022-08-25T00:08:50.194Z,21.70
2022-08-25T00:09:00.146Z,22.20
2022-08-25T00:09:10.132Z,22.80
2022-08-25T00:09:20.144Z,22.80
2022-08-25T00:09:30.135Z,21.80
2022-08-25T00:09:40.137Z,21.50
2022-08-25T00:09:50.140Z,21.60
2022-08-25T00:10:00.147Z,21.80
2022-08-25T00:10:10.205Z,21.70
2022-08-25T00:10:20.938Z,21.60
2022-08-25T00:10:30.252Z,21.90
2022-08-25T00:10:40.129Z,21.60
2022-08-25T00:10:59.929Z,22.30
2022-08-25T00:11:03.637Z,22.30
2022-08-25T00:11:10.134Z,22.20
2022-08-25T00:11:20.942Z,21.70
2022-08-25T00:11:30.155Z,21.90
2022-08-25T00:11:40.124Z,22.00
2022-08-25T00:11:50.127Z,22.50
2022-08-25T00:12:00.155Z,22.30
2022-08-25T00:12:10.130Z,23.40
2022-08-25T00:12:20.129Z,23.10
2022-08-25T00:12:30.184Z,22.80
2022-08-25T00:12:40.124Z,22.10
2022-08-25T00:12:50.124Z,21.80
2022-08-25T00:13:00.119Z,22.40
2022-08-25T00:13:10.124Z,22.20
2022-08-25T00:13:20.127Z,22.90
2022-08-25T00:13:30.196Z,23.30
2022-08-25T00:13:40.133Z,23.50
2022-08-25T00:13:50.132Z,22.80
2022-08-25T00:14:00.298Z,21.90
2022-08-25T00:14:10.137Z,22.30
2022-08-25T00:14:20.181Z,21.80
2022-08-25T00:14:30.112Z,22.40
2022-08-25T00:14:40.966Z,22.00
2022-08-25T00:14:50.134Z,22.10
2022-08-25T00:15:00.118Z,21.20
2022-08-25T00:15:10.116Z,20.90
2022-08-25T00:15:20.139Z,21.30
2022-08-25T00:15:30.977Z,21.80
2022-08-25T00:15:40.191Z,21.50
2022-08-25T00:15:50.266Z,22.30
2022-08-25T00:16:00.170Z,21.80
2022-08-25T00:16:10.215Z,23.10
2022-08-25T00:16:20.215Z,22.50
2022-08-25T00:16:30.105Z,23.20
2022-08-25T00:16:40.946Z,22.10
2022-08-25T00:16:50.105Z,21.80
2022-08-25T00:17:00.939Z,21.40
2022-08-25T00:17:10.101Z,22.60
2022-08-25T00:17:20.119Z,23.50
2022-08-25T00:17:30.112Z,23.30
2022-08-25T00:17:40.970Z,22.40
2022-08-25T00:17:50.196Z,22.50
2022-08-25T00:18:00.190Z,22.60
2022-08-25T00:18:16.648Z,22.40
2022-08-25T00:18:20.153Z,21.90
2022-08-25T00:18:30.117Z,21.60
2022-08-25T00:18:40.105Z,22.40
2022-08-25T00:18:50.194Z,22.50
2022-08-25T00:19:00.269Z,22.80
2022-08-25T00:19:10.140Z,21.60
2022-08-25T00:19:20.107Z,21.30
2022-08-25T00:19:30.101Z,21.60
2022-08-25T00:19:40.088Z,22.00
2022-08-25T00:19:50.100Z,22.20
2022-08-25T00:20:00.133Z,21.70
2022-08-25T00:20:10.107Z,21.80
2022-08-25T00:20:20.103Z,22.00
2022-08-25T00:20:30.110Z,22.90
2022-08-25T00:20:40.378Z,23.10
2022-08-25T00:20:50.938Z,23.10
2022-08-25T00:21:00.083Z,23.00
2022-08-25T00:21:10.080Z,23.30
2022-08-25T00:21:20.107Z,22.90
2022-08-25T00:21:30.078Z,21.70
2022-08-25T00:21:40.088Z,21.10
2022-08-25T00:21:50.087Z,20.70
2022-08-25T00:22:00.078Z,20.70
2022-08-25T00:22:10.091Z,21.20
2022-08-25T00:22:20.086Z,22.00
2022-08-25T00:22:30.073Z,22.70
2022-08-25T00:22:40.082Z,22.40
2022-08-25T00:22:50.939Z,22.60
2022-08-25T00:23:00.952Z,23.20
2022-08-25T00:23:10.089Z,23.20
2022-08-25T00:23:20.096Z,22.60
2022-08-25T00:23:30.067Z,21.70
2022-08-25T00:23:40.082Z,21.40
2022-08-25T00:23:50.149Z,20.80
2022-08-25T00:24:00.093Z,21.20
2022-08-25T00:24:10.070Z,21.30
2022-08-25T00:24:20.125Z,22.40
2022-08-25T00:24:30.064Z,22.00
2022-08-25T00:24:40.088Z,23.00
2022-08-25T00:24:50.068Z,22.90
2022-08-25T00:25:00.958Z,23.20
2022-08-25T00:25:10.071Z,22.60
2022-08-25T00:25:20.065Z,21.70
2022-08-25T00:25:30.063Z,21.90
2022-08-25T00:25:40.064Z,22.00
2022-08-25T00:25:50.064Z,22.30
2022-08-25T00:26:00.068Z,23.10
2022-08-25T00:26:10.068Z,22.90
2022-08-25T00:26:20.073Z,23.10
2022-08-25T00:26:30.088Z,22.40
2022-08-25T00:26:40.067Z,22.90
2022-08-25T00:26:50.053Z,23.00
2022-08-25T00:27:00.080Z,24.10
2022-08-25T00:27:10.214Z,24.70
2022-08-25T00:27:20.056Z,24.80
2022-08-25T00:27:30.076Z,23.50
2022-08-25T00:27:40.071Z,22.90
2022-08-25T00:27:50.061Z,23.00
2022-08-25T00:28:01.440Z,23.30
2022-08-25T00:28:10.267Z,23.20
2022-08-25T00:28:20.053Z,23.70
2022-08-25T00:28:30.151Z,23.50
2022-08-25T00:28:40.052Z,23.30
2022-08-25T00:28:50.049Z,22.90
2022-08-25T00:29:01.763Z,23.80
2022-08-25T00:29:10.986Z,24.20
2022-08-25T00:29:20.068Z,24.40
2022-08-25T00:29:30.090Z,23.20
2022-08-25T00:29:40.059Z,23.50
2022-08-25T00:29:50.047Z,23.80
2022-08-25T00:30:00.063Z,24.80
2022-08-25T00:30:10.043Z,24.50
2022-08-25T00:30:20.053Z,23.90
2022-08-25T00:30:30.071Z,23.30
2022-08-25T00:30:40.216Z,23.00
2022-08-25T00:30:50.136Z,23.50
2022-08-25T00:31:00.075Z,23.50
2022-08-25T00:31:10.126Z,23.60
2022-08-25T00:31:20.229Z,23.50
2022-08-25T00:31:38.430Z,23.90
2022-08-25T00:31:40.084Z,23.80
2022-08-25T00:31:50.037Z,24.10
2022-08-25T00:32:00.042Z,24.50
2022-08-25T00:32:10.954Z,24.60
2022-08-25T00:32:20.066Z,25.20
2022-08-25T00:32:30.027Z,24.70
2022-08-25T00:32:40.045Z,24.30
2022-08-25T00:32:55.046Z,22.80
2022-08-25T00:33:00.069Z,23.30
2022-08-25T00:33:10.081Z,23.60
2022-08-25T00:33:21.050Z,23.60
2022-08-25T00:33:30.031Z,23.50
2022-08-25T00:33:40.081Z,23.20
2022-08-25T00:33:50.020Z,23.60
2022-08-25T00:34:00.027Z,22.90
2022-08-25T00:34:10.023Z,23.40
2022-08-25T00:34:20.031Z,23.40
2022-08-25T00:34:30.070Z,24.00
2022-08-25T00:34:41.247Z,23.50
2022-08-25T00:34:50.028Z,23.10
2022-08-25T00:35:00.025Z,22.30
2022-08-25T00:35:10.021Z,22.30
2022-08-25T00:35:20.047Z,22.10
2022-08-25T00:35:30.133Z,22.30
2022-08-25T00:35:40.020Z,23.20
2022-08-25T00:35:50.105Z,23.70
2022-08-25T00:36:00.031Z,24.20
2022-08-25T00:36:10.012Z,23.10
2022-08-25T00:36:20.028Z,22.60
2022-08-25T00:36:30.996Z,22.40
2022-08-25T00:36:40.013Z,23.30
2022-08-25T00:36:50.943Z,24.30
2022-08-25T00:37:00.038Z,24.50
2022-08-25T00:37:10.017Z,24.40
2022-08-25T00:37:20.032Z,24.30
2022-08-25T00:37:30.966Z,23.90
2022-08-25T00:37:40.008Z,23.60
2022-08-25T00:37:50.049Z,22.50
2022-08-25T00:38:00.069Z,22.60
2022-08-25T00:38:10.025Z,22.40
2022-08-25T00:38:20.954Z,22.30
2022-08-25T00:38:30.001Z,22.70
2022-08-25T00:38:40.021Z,23.00
2022-08-25T00:38:50.026Z,22.90
2022-08-25T00:39:00.008Z,22.60
2022-08-25T00:39:10.008Z,22.90
2022-08-25T00:39:20.113Z,22.80
2022-08-25T00:39:30.004Z,22.40
2022-08-25T00:39:40.107Z,21.40
2022-08-25T00:39:51.040Z,21.50
2022-08-25T00:40:00.052Z,21.40
2022-08-25T00:40:10.031Z,21.40
2022-08-25T00:40:20.109Z,21.50
2022-08-25T00:40:30.082Z,21.50
2022-08-25T00:40:40.011Z,21.90
2022-08-25T00:40:50.034Z,21.40
2022-08-25T00:40:59.999Z,21.70
2022-08-25T00:41:10.004Z,21.40
2022-08-25T00:41:20.035Z,21.70
2022-08-25T00:41:29.990Z,22.00
2022-08-25T00:41:40.026Z,22.00
2022-08-25T00:41:49.993Z,22.40
2022-08-25T00:41:59.998Z,21.40
2022-08-25T00:42:15.918Z,21.80
2022-08-25T00:42:19.986Z,21.90
2022-08-25T00:42:30.004Z,22.40
2022-08-25T00:42:40.003Z,22.80
2022-08-25T00:42:49.984Z,23.40
2022-08-25T00:42:59.994Z,23.80
2022-08-25T00:43:09.980Z,23.30
2022-08-25T00:43:20.073Z,24.10
2022-08-25T00:43:29.993Z,23.80
2022-08-25T00:43:39.985Z,24.60
2022-08-25T00:43:49.994Z,22.60
2022-08-25T00:43:59.993Z,22.40
2022-08-25T00:44:09.976Z,21.90
2022-08-25T00:44:19.990Z,22.00
2022-08-25T00:44:29.990Z,21.70
2022-08-25T00:44:39.976Z,21.90
2022-08-25T00:44:49.977Z,22.40
2022-08-25T00:45:00.597Z,23.20
2022-08-25T00:45:09.970Z,22.80
2022-08-25T00:45:20.002Z,23.10
2022-08-25T00:45:29.982Z,22.60
2022-08-25T00:45:39.983Z,22.70
2022-08-25T00:45:50.046Z,22.70
2022-08-25T00:46:00.072Z,24.00
2022-08-25T00:46:10.153Z,24.20
2022-08-25T00:46:20.017Z,24.90
2022-08-25T00:46:30.104Z,23.80
2022-08-25T00:46:40.097Z,23.20
2022-08-25T00:46:49.967Z,21.90
2022-08-25T00:46:59.994Z,21.90
2022-08-25T00:47:09.978Z,22.70
2022-08-25T00:47:20.982Z,23.00
2022-08-25T00:47:29.965Z,22.60
2022-08-25T00:47:39.959Z,21.70
2022-08-25T00:47:49.994Z,21.10
2022-08-25T00:48:00.028Z,21.00
2022-08-25T00:48:09.974Z,21.50
2022-08-25T00:48:20.058Z,21.60
2022-08-25T00:48:29.966Z,22.20
2022-08-25T00:48:39.964Z,21.30
2022-08-25T00:48:49.964Z,20.90
2022-08-25T00:48:59.974Z,20.90
2022-08-25T00:49:09.967Z,20.80
2022-08-25T00:49:24.880Z,21.60
2022-08-25T00:49:29.959Z,21.30
2022-08-25T00:49:39.956Z,23.20
2022-08-25T00:49:49.957Z,22.80
2022-08-25T00:49:59.965Z,22.60
2022-08-25T00:50:10.025Z,21.00
2022-08-25T00:50:19.976Z,20.60
2022-08-25T00:50:29.956Z,20.50
2022-08-25T00:50:39.960Z,21.40
2022-08-25T00:50:49.958Z,22.90
2022-08-25T00:50:59.950Z,22.80
2022-08-25T00:51:09.962Z,22.10
2022-08-25T00:51:19.993Z,21.60
2022-08-25T00:51:29.963Z,22.10
2022-08-25T00:51:39.944Z,22.90
2022-08-25T00:51:49.954Z,23.50
2022-08-25T00:51:59.942Z,23.50
2022-08-25T00:52:09.942Z,22.20
2022-08-25T00:52:19.945Z,20.80
2022-08-25T00:52:29.944Z,20.80
2022-08-25T00:52:39.943Z,21.50
2022-08-25T00:52:49.941Z,21.80
2022-08-25T00:52:59.942Z,22.20
2022-08-25T00:53:09.939Z,21.90
2022-08-25T00:53:20.029Z,22.30
2022-08-25T00:53:29.946Z,22.90
2022-08-25T00:53:40.451Z,22.30
2022-08-25T00:53:49.952Z,22.40
2022-08-25T00:53:59.943Z,21.10
2022-08-25T00:54:09.980Z,22.30
2022-08-25T00:54:19.935Z,21.80
2022-08-25T00:54:29.935Z,22.40
2022-08-25T00:54:39.941Z,22.30
2022-08-25T00:54:49.948Z,22.80
2022-08-25T00:55:04.333Z,23.20
2022-08-25T00:55:09.943Z,23.30
2022-08-25T00:55:20.013Z,23.40
2022-08-25T00:55:29.929Z,23.20
2022-08-25T00:55:39.935Z,23.00
2022-08-25T00:55:49.939Z,22.30
2022-08-25T00:55:59.929Z,22.60
2022-08-25T00:56:09.941Z,22.30
2022-08-25T00:56:20.713Z,23.20
2022-08-25T00:56:29.936Z,22.40
2022-08-25T00:56:39.939Z,23.00
2022-08-25T00:56:49.940Z,22.60
2022-08-25T00:56:59.922Z,23.00
2022-08-25T00:57:10.053Z,23.00
2022-08-25T00:57:19.919Z,23.30
2022-08-25T00:57:34.671Z,22.90
2022-08-25T00:57:39.933Z,23.40
2022-08-25T00:57:49.921Z,23.70
2022-08-25T00:57:59.942Z,24.30
2022-08-25T00:58:10.460Z,23.70
2022-08-25T00:58:19.955Z,23.60
2022-08-25T00:58:29.961Z,23.40
2022-08-25T00:58:39.915Z,24.00
2022-08-25T00:58:49.918Z,24.50
2022-08-25T00:58:59.928Z,24.60
2022-08-25T00:59:09.927Z,24.40
2022-08-25T00:59:19.918Z,24.70
2022-08-25T00:59:29.915Z,25.30
2022-08-25T00:59:39.912Z,26.00
2022-08-25T00:59:49.915Z,25.70
2022-08-25T00:59:59.918Z,25.50
2022-08-25T01:00:09.916Z,25.70
2022-08-25T01:00:19.922Z,26.10
2022-08-25T01:00:30.002Z,27.20
2022-08-25T01:00:39.905Z,26.50
2022-08-25T01:00:49.907Z,26.00
2022-08-25T01:00:59.907Z,25.40
2022-08-25T01:01:09.952Z,25.30
2022-08-25T01:01:19.981Z,25.70
2022-08-25T01:01:30.020Z,25.20
2022-08-25T01:01:39.948Z,25.60
2022-08-25T01:01:50.049Z,25.70
2022-08-25T01:02:00.080Z,26.00
2022-08-25T01:02:10.199Z,25.40
2022-08-25T01:02:19.927Z,25.10
2022-08-25T01:02:29.990Z,24.50
2022-08-25T01:02:39.950Z,25.30
2022-08-25T01:02:49.989Z,24.60
2022-08-25T01:02:59.932Z,25.10
2022-08-25T01:03:09.906Z,24.70
2022-08-25T01:03:19.905Z,25.90
2022-08-25T01:03:33.174Z,25.00
2022-08-25T01:03:39.890Z,24.70
2022-08-25T01:03:49.917Z,23.70
2022-08-25T01:03:59.900Z,24.00
2022-08-25T01:04:09.892Z,23.50
2022-08-25T01:04:19.894Z,24.30
2022-08-25T01:04:29.921Z,24.60
2022-08-25T01:04:39.993Z,26.10
2022-08-25T01:04:49.895Z,25.70
2022-08-25T01:04:59.886Z,25.20
2022-08-25T01:05:09.894Z,24.90
2022-08-25T01:05:19.896Z,24.20
2022-08-25T01:05:29.910Z,25.10
2022-08-25T01:05:39.923Z,24.30
2022-08-25T01:05:49.892Z,25.00
2022-08-25T01:05:59.879Z,24.20
2022-08-25T01:06:09.885Z,24.60
2022-08-25T01:06:19.883Z,24.70
2022-08-25T01:06:29.882Z,24.50
2022-08-25T01:06:39.909Z,24.20
2022-08-25T01:06:50.004Z,23.60
2022-08-25T01:06:59.874Z,24.10
2022-08-25T01:07:15.514Z,23.70
2022-08-25T01:07:19.875Z,25.00
2022-08-25T01:07:29.875Z,24.80
2022-08-25T01:07:39.897Z,24.70
2022-08-25T01:07:49.878Z,23.10
2022-08-25T01:08:00.605Z,22.20
2022-08-25T01:08:10.090Z,22.10
2022-08-25T01:08:19.879Z,22.80
2022-08-25T01:08:30.466Z,23.30
2022-08-25T01:08:39.888Z,22.90
2022-08-25T01:08:49.873Z,23.10
2022-08-25T01:08:59.882Z,24.30
2022-08-25T01:09:09.889Z,25.90
2022-08-25T01:09:19.864Z,26.90
2022-08-25T01:09:29.872Z,26.10
2022-08-25T01:09:39.865Z,25.30
2022-08-25T01:09:49.869Z,24.40
2022-08-25T01:09:59.863Z,24.70
2022-08-25T01:10:09.866Z,24.90
2022-08-25T01:10:19.872Z,24.40
2022-08-25T01:10:29.907Z,24.00
2022-08-25T01:10:39.858Z,23.60
2022-08-25T01:10:49.961Z,24.00
2022-08-25T01:10:59.869Z,23.90
2022-08-25T01:11:09.857Z,23.80
2022-08-25T01:11:19.863Z,22.80
2022-08-25T01:11:29.870Z,23.70
2022-08-25T01:11:39.862Z,23.80
2022-08-25T01:11:49.863Z,25.10
2022-08-25T01:11:59.853Z,23.80
2022-08-25T01:12:09.861Z,23.90
2022-08-25T01:12:19.864Z,23.50
2022-08-25T01:12:29.851Z,23.30
2022-08-25T01:12:39.856Z,23.10
2022-08-25T01:12:49.874Z,22.60
2022-08-25T01:12:59.847Z,23.00
2022-08-25T01:13:16.683Z,22.70
2022-08-25T01:13:19.859Z,23.30
2022-08-25T01:13:30.480Z,23.70
2022-08-25T01:13:39.843Z,25.20
2022-08-25T01:13:49.871Z,24.40
2022-08-25T01:13:59.844Z,24.30
2022-08-25T01:14:09.848Z,23.50
2022-08-25T01:14:19.855Z,23.70
2022-08-25T01:14:29.846Z,23.60
2022-08-25T01:14:39.859Z,24.00
2022-08-25T01:14:49.860Z,24.10
2022-08-25T01:14:59.901Z,24.80
2022-08-25T01:15:10.472Z,25.20
2022-08-25T01:15:19.839Z,26.50
2022-08-25T01:15:29.906Z,26.90
2022-08-25T01:15:39.905Z,26.90
2022-08-25T01:15:49.920Z,26.50
2022-08-25T01:15:59.956Z,26.10
2022-08-25T01:16:10.041Z,26.70
2022-08-25T01:16:19.946Z,27.20
2022-08-25T01:16:29.842Z,28.00
2022-08-25T01:16:39.841Z,27.90
2022-08-25T01:16:51.099Z,28.60
2022-08-25T01:16:59.869Z,27.80
2022-08-25T01:17:09.963Z,26.90
2022-08-25T01:17:19.835Z,27.40
2022-08-25T01:17:29.845Z,28.40
2022-08-25T01:17:39.827Z,29.70
2022-08-25T01:17:49.847Z,29.00
2022-08-25T01:18:00.025Z,28.50
2022-08-25T01:18:09.829Z,28.00
2022-08-25T01:18:19.848Z,27.80
2022-08-25T01:18:29.836Z,27.60
2022-08-25T01:18:40.468Z,27.60
2022-08-25T01:18:49.826Z,27.40
2022-08-25T01:18:59.824Z,28.00
2022-08-25T01:19:09.878Z,28.00
2022-08-25T01:19:19.829Z,28.10
2022-08-25T01:19:29.831Z,27.60
2022-08-25T01:19:39.818Z,27.40
2022-08-25T01:19:49.850Z,27.10
2022-08-25T01:19:59.823Z,27.30
2022-08-25T01:20:09.819Z,28.00
2022-08-25T01:20:19.827Z,28.50
2022-08-25T01:20:29.831Z,28.70
2022-08-25T01:20:40.503Z,27.50
2022-08-25T01:20:49.817Z,27.30
2022-08-25T01:20:59.836Z,26.70
2022-08-25T01:21:10.028Z,27.70
2022-08-25T01:21:19.808Z,28.50
2022-08-25T01:21:29.812Z,28.50
2022-08-25T01:21:39.818Z,28.40
2022-08-25T01:21:49.828Z,28.30
2022-08-25T01:21:59.805Z,28.70
2022-08-25T01:22:09.814Z,27.70
2022-08-25T01:22:19.807Z,27.00
2022-08-25T01:22:29.805Z,27.10
2022-08-25T01:22:39.807Z,28.30
2022-08-25T01:22:55.217Z,28.30
2022-08-25T01:22:59.819Z,28.60
2022-08-25T01:23:09.811Z,28.70
2022-08-25T01:23:19.857Z,29.00
2022-08-25T01:23:29.812Z,28.90
2022-08-25T01:23:40.464Z,28.80
2022-08-25T01:23:49.803Z,28.20
2022-08-25T01:23:59.810Z,28.30
2022-08-25T01:24:09.816Z,28.10
2022-08-25T01:24:19.795Z,28.10
2022-08-25T01:24:29.809Z,28.60
2022-08-25T01:24:39.808Z,28.80
2022-08-25T01:24:49.799Z,29.00
2022-08-25T01:24:59.796Z,27.30
2022-08-25T01:25:09.816Z,27.00
2022-08-25T01:25:19.799Z,27.20
2022-08-25T01:25:29.794Z,27.60
2022-08-25T01:25:39.860Z,27.40
2022-08-25T01:25:49.796Z,27.00
2022-08-25T01:25:59.796Z,26.70
2022-08-25T01:26:09.800Z,26.80
2022-08-25T01:26:19.853Z,26.50
2022-08-25T01:26:30.501Z,27.70
2022-08-25T01:26:39.785Z,27.90
2022-08-25T01:26:49.797Z,28.60
2022-08-25T01:26:59.793Z,27.20
2022-08-25T01:27:09.788Z,26.60
2022-08-25T01:27:19.789Z,26.50
2022-08-25T01:27:29.818Z,27.60
2022-08-25T01:27:39.787Z,27.70
2022-08-25T01:27:49.792Z,27.90
2022-08-25T01:27:59.814Z,26.90
2022-08-25T01:28:09.786Z,26.80
2022-08-25T01:28:19.780Z,26.10
2022-08-25T01:28:29.792Z,26.40
2022-08-25T01:28:39.780Z,26.60
2022-08-25T01:28:49.787Z,26.70
2022-08-25T01:28:59.794Z,26.80
2022-08-25T01:29:09.778Z,26.60
2022-08-25T01:29:19.788Z,26.00
2022-08-25T01:29:30.469Z,25.50
2022-08-25T01:29:39.869Z,25.40
2022-08-25T01:29:49.786Z,25.90
2022-08-25T01:29:59.773Z,25.60
2022-08-25T01:30:09.780Z,25.80
2022-08-25T01:30:19.782Z,25.80
2022-08-25T01:30:29.772Z,25.80
2022-08-25T01:30:39.853Z,25.50
2022-08-25T01:30:49.835Z,24.70
2022-08-25T01:30:59.823Z,24.50
2022-08-25T01:31:23.694Z,24.10
2022-08-25T01:31:24.053Z,24.70
2022-08-25T01:31:29.849Z,25.20
2022-08-25T01:31:39.829Z,26.20
2022-08-25T01:31:49.764Z,25.80
2022-08-25T01:31:59.770Z,25.40
2022-08-25T01:32:09.877Z,25.40
2022-08-25T01:32:19.777Z,25.90
2022-08-25T01:32:29.758Z,26.60
2022-08-25T01:32:39.762Z,26.20
2022-08-25T01:32:49.762Z,27.40
2022-08-25T01:32:59.773Z,27.00
2022-08-25T01:33:09.781Z,27.20
2022-08-25T01:33:19.796Z,26.20
2022-08-25T01:33:29.763Z,26.60
2022-08-25T01:33:39.773Z,26.40
2022-08-25T01:33:49.752Z,26.30
2022-08-25T01:33:59.765Z,25.90
2022-08-25T01:34:09.760Z,26.10
2022-08-25T01:34:19.754Z,25.60
2022-08-25T01:34:29.765Z,27.50
2022-08-25T01:34:39.770Z,27.70
2022-08-25T01:34:49.758Z,28.50
2022-08-25T01:34:59.792Z,25.90
2022-08-25T01:35:09.825Z,25.60
2022-08-25T01:35:20.478Z,25.90
2022-08-25T01:35:29.780Z,26.30
2022-08-25T01:35:39.747Z,27.00
2022-08-25T01:35:49.817Z,26.70
2022-08-25T01:35:59.761Z,27.30
2022-08-25T01:36:09.744Z,27.20
2022-08-25T01:36:19.750Z,26.60
2022-08-25T01:36:29.752Z,26.70
2022-08-25T01:36:39.816Z,27.20
2022-08-25T01:36:49.740Z,27.40
2022-08-25T01:36:59.748Z,27.00
2022-08-25T01:37:13.385Z,27.10
2022-08-25T01:37:19.748Z,26.80
2022-08-25T01:37:29.745Z,26.40
2022-08-25T01:37:39.739Z,26.10
2022-08-25T01:37:49.769Z,26.80
2022-08-25T01:37:59.834Z,27.30
2022-08-25T01:38:09.740Z,26.80
2022-08-25T01:38:19.747Z,26.10
2022-08-25T01:38:29.731Z,25.90
2022-08-25T01:38:39.749Z,25.60
2022-08-25T01:38:50.477Z,26.20
2022-08-25T01:38:59.738Z,26.50
2022-08-25T01:39:09.738Z,26.90
2022-08-25T01:39:19.732Z,27.20
2022-08-25T01:39:29.727Z,28.00
2022-08-25T01:39:39.743Z,27.50
2022-08-25T01:39:49.804Z,27.70
2022-08-25T01:39:59.925Z,26.90
2022-08-25T01:40:09.773Z,26.60
2022-08-25T01:40:19.785Z,26.50
2022-08-25T01:40:29.748Z,27.40
2022-08-25T01:40:39.748Z,28.20
2022-08-25T01:40:49.724Z,28.40
2022-08-25T01:40:59.773Z,27.80
2022-08-25T01:41:09.731Z,27.50
2022-08-25T01:41:19.723Z,28.00
2022-08-25T01:41:29.733Z,28.50
2022-08-25T01:41:39.760Z,28.20
2022-08-25T01:41:50.448Z,27.50
2022-08-25T01:42:02.496Z,26.60
2022-08-25T01:42:09.721Z,26.90
2022-08-25T01:42:19.730Z,26.60
2022-08-25T01:42:29.732Z,26.70
2022-08-25T01:42:39.743Z,26.40
2022-08-25T01:42:49.716Z,26.80
2022-08-25T01:42:59.720Z,27.00
2022-08-25T01:43:09.726Z,26.80
2022-08-25T01:43:19.721Z,26.20
2022-08-25T01:43:29.713Z,25.50
2022-08-25T01:43:39.723Z,26.10
2022-08-25T01:43:49.717Z,27.50
2022-08-25T01:44:02.495Z,29.00
2022-08-25T01:44:15.945Z,29.30
2022-08-25T01:44:19.719Z,28.30
2022-08-25T01:44:29.705Z,27.00
2022-08-25T01:44:39.709Z,26.40
2022-08-25T01:44:49.711Z,27.20
2022-08-25T01:44:59.739Z,26.90
2022-08-25T01:45:09.703Z,27.10
2022-08-25T01:45:19.708Z,26.40
2022-08-25T01:45:29.713Z,26.30
2022-08-25T01:45:39.707Z,25.90
2022-08-25T01:45:49.754Z,25.70
2022-08-25T01:45:59.825Z,26.50
2022-08-25T01:46:09.799Z,26.30
2022-08-25T01:46:19.756Z,27.00
2022-08-25T01:46:29.777Z,27.60
2022-08-25T01:46:39.701Z,28.30
2022-08-25T01:46:49.718Z,28.50
2022-08-25T01:46:59.736Z,28.20
2022-08-25T01:47:09.702Z,28.10
2022-08-25T01:47:19.706Z,28.30
2022-08-25T01:47:30.494Z,28.40
2022-08-25T01:47:39.716Z,28.70
2022-08-25T01:47:49.699Z,28.20
2022-08-25T01:47:59.772Z,27.60
2022-08-25T01:48:09.706Z,27.70
2022-08-25T01:48:19.768Z,27.80
2022-08-25T01:48:29.688Z,28.20
2022-08-25T01:48:39.705Z,27.60
2022-08-25T01:48:49.698Z,27.50
2022-08-25T01:49:02.752Z,27.10
2022-08-25T01:49:09.714Z,27.30
2022-08-25T01:49:19.718Z,27.20
2022-08-25T01:49:29.693Z,26.20
2022-08-25T01:49:39.691Z,26.60
2022-08-25T01:49:49.686Z,26.00
2022-08-25T01:49:59.693Z,27.00
2022-08-25T01:50:09.690Z,26.50
2022-08-25T01:50:20.485Z,26.10
2022-08-25T01:50:29.697Z,25.40
2022-08-25T01:50:39.695Z,25.30
2022-08-25T01:50:49.677Z,25.70
2022-08-25T01:50:59.684Z,26.10
2022-08-25T01:51:09.689Z,25.20
2022-08-25T01:51:19.775Z,24.90
2022-08-25T01:51:29.688Z,25.80
2022-08-25T01:51:39.687Z,26.70
2022-08-25T01:51:49.675Z,27.30
2022-08-25T01:51:59.709Z,26.70
2022-08-25T01:52:09.833Z,27.10
2022-08-25T01:52:19.688Z,26.20
2022-08-25T01:52:29.730Z,24.60
2022-08-25T01:52:39.673Z,23.90
2022-08-25T01:52:50.583Z,23.60
2022-08-25T01:52:59.680Z,24.90
2022-08-25T01:53:09.670Z,24.90
2022-08-25T01:53:19.671Z,25.60
2022-08-25T01:53:29.666Z,25.00
2022-08-25T01:53:39.670Z,25.10
2022-08-25T01:53:49.668Z,24.90
2022-08-25T01:53:59.704Z,25.30
2022-08-25T01:54:09.665Z,25.60
2022-08-25T01:54:19.677Z,25.40
2022-08-25T01:54:30.494Z,25.10
2022-08-25T01:54:39.666Z,25.00
2022-08-25T01:54:49.683Z,25.40
2022-08-25T01:54:59.669Z,25.60
2022-08-25T01:55:09.658Z,25.60
2022-08-25T01:55:19.678Z,25.80
2022-08-25T01:55:29.789Z,26.00
2022-08-25T01:55:39.668Z,25.90
2022-08-25T01:55:49.660Z,25.70
2022-08-25T01:55:59.661Z,25.40
2022-08-25T01:56:09.937Z,25.00
2022-08-25T01:56:19.670Z,24.50
2022-08-25T01:56:29.653Z,24.10
2022-08-25T01:56:39.732Z,24.30
2022-08-25T01:56:49.656Z,25.20
2022-08-25T01:56:59.653Z,25.70
2022-08-25T01:57:09.673Z,24.80
2022-08-25T01:57:19.723Z,24.10
2022-08-25T01:57:29.653Z,24.00
2022-08-25T01:57:39.675Z,24.40
2022-08-25T01:57:50.493Z,25.20
2022-08-25T01:57:59.819Z,25.10
2022-08-25T01:58:10.484Z,25.70
2022-08-25T01:58:19.661Z,25.10
2022-08-25T01:58:29.653Z,24.50
2022-08-25T01:58:39.685Z,24.00
2022-08-25T01:58:49.743Z,24.40
2022-08-25T01:58:59.653Z,25.00
2022-08-25T01:59:09.652Z,25.40
2022-08-25T01:59:24.241Z,25.10
2022-08-25T01:59:29.638Z,25.20
2022-08-25T01:59:40.496Z,25.20
2022-08-25T01:59:49.642Z,26.20
2022-08-25T01:59:59.649Z,25.80
2022-08-25T02:00:09.700Z,26.60
2022-08-25T02:00:19.645Z,25.20
2022-08-25T02:00:30.681Z,25.40
2022-08-25T02:00:39.649Z,24.60
2022-08-25T02:00:49.705Z,24.70
2022-08-25T02:00:59.717Z,24.60
2022-08-25T02:01:09.679Z,24.10
2022-08-25T02:01:19.672Z,24.90
2022-08-25T02:01:29.678Z,26.00
2022-08-25T02:01:39.674Z,27.50
2022-08-25T02:01:49.720Z,27.70
2022-08-25T02:02:00.349Z,27.10
2022-08-25T02:02:09.646Z,26.10
2022-08-25T02:02:19.657Z,26.70
2022-08-25T02:02:31.645Z,27.20
2022-08-25T02:02:42.628Z,27.40
2022-08-25T02:02:52.223Z,27.60
2022-08-25T02:02:59.676Z,27.20
2022-08-25T02:03:14.299Z,28.30
2022-08-25T02:03:19.729Z,27.90
2022-08-25T02:03:29.652Z,28.20
2022-08-25T02:03:42.246Z,27.70
2022-08-25T02:03:49.631Z,27.80
2022-08-25T02:03:59.641Z,27.90
2022-08-25T02:04:09.620Z,28.40
2022-08-25T02:04:19.622Z,28.00
2022-08-25T02:04:29.621Z,27.30
2022-08-25T02:04:40.794Z,26.80
2022-08-25T02:04:49.649Z,27.20
2022-08-25T02:04:59.675Z,27.40
2022-08-25T02:05:09.615Z,26.60
2022-08-25T02:05:23.388Z,26.10
2022-08-25T02:05:29.616Z,26.10
2022-08-25T02:05:40.550Z,26.60
2022-08-25T02:05:49.624Z,26.50
2022-08-25T02:05:59.619Z,26.80
2022-08-25T02:06:09.621Z,26.90
2022-08-25T02:06:19.631Z,27.10
2022-08-25T02:06:29.961Z,26.80
2022-08-25T02:06:39.617Z,27.30
2022-08-25T02:06:49.615Z,27.30
2022-08-25T02:06:59.683Z,27.90
2022-08-25T02:07:09.605Z,27.40
2022-08-25T02:07:19.637Z,27.70
2022-08-25T02:07:29.612Z,27.40
2022-08-25T02:07:39.675Z,27.70
2022-08-25T02:07:49.609Z,28.10
2022-08-25T02:07:59.732Z,28.00
2022-08-25T02:08:09.606Z,28.10
2022-08-25T02:08:19.614Z,27.60
2022-08-25T02:08:29.614Z,28.60
2022-08-25T02:08:39.610Z,27.80